Baildon, United Kingdom
Current Conditions -  °F | °C
As of 7:20 AM on Saturday 01 Nov 2014 (Local Time) from EGNM Reporting Station
Few Clouds Few Clouds  
Wind Chill: 11°   Ceiling: Unl
Heat Index: 11°   Visibility: 6mi
Dew Point:   Wind: 13mph
Humidity: 88%   Direction: 240°WSW
Pressure: 29.85"   Gusts: NA
Location:  53.85°N, 1.79°W
Report Text: EGNM 010720Z 24011KT 9999 FEW015 11/09 Q1011
Loading
Personal Weather Stations






























Interactive Weather Map
Tropical Storm Tracking
New forecast layout! Learn more

10-Day Weather Forecast

Advertisements
Track Severe Weather on mobile